sensor_id;sensor_type;location;lat;lon;timestamp;temperature;humidity
56436;DHT22;42335;44.872;20.658;2024-02-26T00:01:50;308.00;2304.00
56436;DHT22;42335;44.872;20.658;2024-02-26T00:04:16;308.00;2304.00
56436;DHT22;42335;44.872;20.658;2024-02-26T00:06:42;308.00;2304.00
56436;DHT22;42335;44.872;20.658;2024-02-26T00:09:09;308.00;2304.00
56436;DHT22;42335;44.872;20.658;2024-02-26T00:11:36;307.90;2304.00
56436;DHT22;42335;44.872;20.658;2024-02-26T00:14:03;307.90;2304.00
56436;DHT22;42335;44.872;20.658;2024-02-26T00:16:29;308.00;2304.00
56436;DHT22;42335;44.872;20.658;2024-02-26T00:18:55;308.00;2304.00
56436;DHT22;42335;44.872;20.658;2024-02-26T00:21:21;307.90;2304.00
56436;DHT22;42335;44.872;20.658;2024-02-26T00:23:47;307.90;2304.00
56436;DHT22;42335;44.872;20.658;2024-02-26T00:26:14;307.90;2304.00
56436;DHT22;42335;44.872;20.658;2024-02-26T00:28:41;307.90;2304.00
56436;DHT22;42335;44.872;20.658;2024-02-26T00:31:06;307.90;2304.00
56436;DHT22;42335;44.872;20.658;2024-02-26T00:33:32;307.90;2304.00
56436;DHT22;42335;44.872;20.658;2024-02-26T00:35:58;332.80;2329.60
56436;DHT22;42335;44.872;20.658;2024-02-26T00:38:24;307.90;2304.00
56436;DHT22;42335;44.872;20.658;2024-02-26T00:40:50;307.90;2304.00
56436;DHT22;42335;44.872;20.658;2024-02-26T00:43:16;307.80;2304.00
56436;DHT22;42335;44.872;20.658;2024-02-26T00:45:42;307.80;2304.00
56436;DHT22;42335;44.872;20.658;2024-02-26T00:48:07;307.80;2304.00
56436;DHT22;42335;44.872;20.658;2024-02-26T00:50:36;307.70;2304.00
56436;DHT22;42335;44.872;20.658;2024-02-26T00:53:02;307.70;2304.00
56436;DHT22;42335;44.872;20.658;2024-02-26T00:55:28;307.70;2304.00
56436;DHT22;42335;44.872;20.658;2024-02-26T00:57:54;307.70;2304.00
56436;DHT22;42335;44.872;20.658;2024-02-26T01:00:20;307.60;2304.00
56436;DHT22;42335;44.872;20.658;2024-02-26T01:02:46;307.60;2304.00
56436;DHT22;42335;44.872;20.658;2024-02-26T01:05:13;307.60;2304.00
56436;DHT22;42335;44.872;20.658;2024-02-26T01:07:39;307.50;2304.00
56436;DHT22;42335;44.872;20.658;2024-02-26T01:10:06;307.50;2304.00
56436;DHT22;42335;44.872;20.658;2024-02-26T01:12:33;307.50;2304.00
56436;DHT22;42335;44.872;20.658;2024-02-26T01:15:00;307.50;2304.00
56436;DHT22;42335;44.872;20.658;2024-02-26T01:17:25;307.40;2304.00
56436;DHT22;42335;44.872;20.658;2024-02-26T01:19:51;307.40;2304.00
56436;DHT22;42335;44.872;20.658;2024-02-26T01:22:18;307.40;2304.00
56436;DHT22;42335;44.872;20.658;2024-02-26T01:24:43;307.30;2304.00
56436;DHT22;42335;44.872;20.658;2024-02-26T01:27:09;307.40;2304.00
56436;DHT22;42335;44.872;20.658;2024-02-26T01:29:35;307.30;2304.00
56436;DHT22;42335;44.872;20.658;2024-02-26T01:32:01;307.30;2304.00
56436;DHT22;42335;44.872;20.658;2024-02-26T01:34:27;307.30;2304.00
56436;DHT22;42335;44.872;20.658;2024-02-26T01:36:52;307.30;2304.00
56436;DHT22;42335;44.872;20.658;2024-02-26T01:39:18;307.40;2304.00
56436;DHT22;42335;44.872;20.658;2024-02-26T01:41:44;307.30;2304.00
56436;DHT22;42335;44.872;20.658;2024-02-26T01:44:12;307.30;2304.00
56436;DHT22;42335;44.872;20.658;2024-02-26T01:46:39;307.30;2304.00
56436;DHT22;42335;44.872;20.658;2024-02-26T01:49:05;307.30;2304.00
56436;DHT22;42335;44.872;20.658;2024-02-26T01:51:32;307.30;2304.00
56436;DHT22;42335;44.872;20.658;2024-02-26T01:54:00;307.30;2304.00
56436;DHT22;42335;44.872;20.658;2024-02-26T01:56:27;307.20;2304.00
56436;DHT22;42335;44.872;20.658;2024-02-26T01:58:58;307.20;2304.00
56436;DHT22;42335;44.872;20.658;2024-02-26T02:01:29;282.50;2278.40
56436;DHT22;42335;44.872;20.658;2024-02-26T02:03:58;282.50;2278.40
56436;DHT22;42335;44.872;20.658;2024-02-26T02:06:24;282.50;2278.40
56436;DHT22;42335;44.872;20.658;2024-02-26T02:08:50;282.50;2278.40
56436;DHT22;42335;44.872;20.658;2024-02-26T02:11:17;282.50;2278.40
56436;DHT22;42335;44.872;20.658;2024-02-26T02:13:43;282.40;2278.40
56436;DHT22;42335;44.872;20.658;2024-02-26T02:16:09;282.30;2278.40
56436;DHT22;42335;44.872;20.658;2024-02-26T02:18:34;282.30;2278.40
56436;DHT22;42335;44.872;20.658;2024-02-26T02:21:01;282.20;2278.40
56436;DHT22;42335;44.872;20.658;2024-02-26T02:23:27;282.20;2278.40
56436;DHT22;42335;44.872;20.658;2024-02-26T02:25:53;282.30;2278.40
56436;DHT22;42335;44.872;20.658;2024-02-26T02:28:21;282.30;2278.40
56436;DHT22;42335;44.872;20.658;2024-02-26T02:30:47;282.30;2278.40
56436;DHT22;42335;44.872;20.658;2024-02-26T02:33:14;282.10;2278.40
56436;DHT22;42335;44.872;20.658;2024-02-26T02:35:41;282.20;2278.40
56436;DHT22;42335;44.872;20.658;2024-02-26T02:38:06;282.20;2278.40
56436;DHT22;42335;44.872;20.658;2024-02-26T02:40:32;282.20;2278.40
56436;DHT22;42335;44.872;20.658;2024-02-26T02:42:58;282.30;2278.40
56436;DHT22;42335;44.872;20.658;2024-02-26T02:45:25;282.30;2278.40
56436;DHT22;42335;44.872;20.658;2024-02-26T02:47:51;282.30;2278.40
56436;DHT22;42335;44.872;20.658;2024-02-26T02:50:17;282.30;2278.40
56436;DHT22;42335;44.872;20.658;2024-02-26T02:52:42;282.30;2278.40
56436;DHT22;42335;44.872;20.658;2024-02-26T02:55:08;282.40;2278.40
56436;DHT22;42335;44.872;20.658;2024-02-26T02:57:34;282.40;2278.40
56436;DHT22;42335;44.872;20.658;2024-02-26T03:00:00;282.40;2278.40
56436;DHT22;42335;44.872;20.658;2024-02-26T03:02:25;282.40;2278.40
56436;DHT22;42335;44.872;20.658;2024-02-26T03:04:51;282.30;2278.40
56436;DHT22;42335;44.872;20.658;2024-02-26T03:07:17;282.30;2278.40
56436;DHT22;42335;44.872;20.658;2024-02-26T03:09:43;282.40;2278.40
56436;DHT22;42335;44.872;20.658;2024-02-26T03:12:09;282.30;2278.40
56436;DHT22;42335;44.872;20.658;2024-02-26T03:14:35;282.30;2278.40
56436;DHT22;42335;44.872;20.658;2024-02-26T03:17:00;282.30;2278.40
56436;DHT22;42335;44.872;20.658;2024-02-26T03:19:26;282.30;2278.40
56436;DHT22;42335;44.872;20.658;2024-02-26T03:21:52;282.30;2278.40
56436;DHT22;42335;44.872;20.658;2024-02-26T03:24:18;282.30;2278.40
56436;DHT22;42335;44.872;20.658;2024-02-26T03:26:44;282.30;2278.40
56436;DHT22;42335;44.872;20.658;2024-02-26T03:29:09;282.30;2278.40
56436;DHT22;42335;44.872;20.658;2024-02-26T03:31:35;282.30;2278.40
56436;DHT22;42335;44.872;20.658;2024-02-26T03:34:01;282.30;2278.40
56436;DHT22;42335;44.872;20.658;2024-02-26T03:36:27;282.30;2278.40
56436;DHT22;42335;44.872;20.658;2024-02-26T03:38:53;282.20;2278.40
56436;DHT22;42335;44.872;20.658;2024-02-26T03:41:19;282.20;2278.40
56436;DHT22;42335;44.872;20.658;2024-02-26T03:43:45;282.20;2278.40
56436;DHT22;42335;44.872;20.658;2024-02-26T03:46:11;282.10;2278.40
56436;DHT22;42335;44.872;20.658;2024-02-26T03:48:41;282.10;2278.40
56436;DHT22;42335;44.872;20.658;2024-02-26T03:51:09;282.10;2278.40
56436;DHT22;42335;44.872;20.658;2024-02-26T03:53:36;282.10;2278.40
56436;DHT22;42335;44.872;20.658;2024-02-26T03:56:05;282.10;2278.40
56436;DHT22;42335;44.872;20.658;2024-02-26T03:58:31;282.00;2278.40
56436;DHT22;42335;44.872;20.658;2024-02-26T04:00:58;282.10;2278.40
56436;DHT22;42335;44.872;20.658;2024-02-26T04:03:24;282.00;2278.40
56436;DHT22;42335;44.872;20.658;2024-02-26T04:05:51;282.00;2278.40
56436;DHT22;42335;44.872;20.658;2024-02-26T04:08:16;282.00;2278.40
56436;DHT22;42335;44.872;20.658;2024-02-26T04:10:43;282.00;2278.40
56436;DHT22;42335;44.872;20.658;2024-02-26T04:13:09;281.90;2278.40
56436;DHT22;42335;44.872;20.658;2024-02-26T04:15:34;282.00;2278.40
56436;DHT22;42335;44.872;20.658;2024-02-26T04:18:00;282.00;2278.40
56436;DHT22;42335;44.872;20.658;2024-02-26T04:20:26;282.00;2278.40
56436;DHT22;42335;44.872;20.658;2024-02-26T04:22:52;281.90;2278.40
56436;DHT22;42335;44.872;20.658;2024-02-26T04:25:18;281.90;2278.40
56436;DHT22;42335;44.872;20.658;2024-02-26T04:27:44;282.00;2278.40
56436;DHT22;42335;44.872;20.658;2024-02-26T04:30:10;282.00;2278.40
56436;DHT22;42335;44.872;20.658;2024-02-26T04:32:36;282.00;2278.40
56436;DHT22;42335;44.872;20.658;2024-02-26T04:35:03;282.00;2278.40
56436;DHT22;42335;44.872;20.658;2024-02-26T04:37:28;282.00;2278.40
56436;DHT22;42335;44.872;20.658;2024-02-26T04:39:58;282.00;2278.40
56436;DHT22;42335;44.872;20.658;2024-02-26T04:42:24;282.00;2278.40
56436;DHT22;42335;44.872;20.658;2024-02-26T04:44:50;282.00;2278.40
56436;DHT22;42335;44.872;20.658;2024-02-26T04:47:16;282.00;2278.40
56436;DHT22;42335;44.872;20.658;2024-02-26T04:49:42;282.00;2278.40
56436;DHT22;42335;44.872;20.658;2024-02-26T04:52:08;282.00;2278.40
56436;DHT22;42335;44.872;20.658;2024-02-26T04:54:34;282.00;2278.40
56436;DHT22;42335;44.872;20.658;2024-02-26T04:56:59;282.00;2278.40
56436;DHT22;42335;44.872;20.658;2024-02-26T04:59:25;282.00;2278.40
56436;DHT22;42335;44.872;20.658;2024-02-26T05:01:51;282.00;2278.40
56436;DHT22;42335;44.872;20.658;2024-02-26T05:04:18;282.00;2278.40
56436;DHT22;42335;44.872;20.658;2024-02-26T05:06:44;282.00;2278.40
56436;DHT22;42335;44.872;20.658;2024-02-26T05:09:10;282.00;2278.40
56436;DHT22;42335;44.872;20.658;2024-02-26T05:11:35;282.00;2278.40
56436;DHT22;42335;44.872;20.658;2024-02-26T05:14:01;282.00;2278.40
56436;DHT22;42335;44.872;20.658;2024-02-26T05:16:27;282.00;2278.40
56436;DHT22;42335;44.872;20.658;2024-02-26T05:18:55;282.00;2278.40
56436;DHT22;42335;44.872;20.658;2024-02-26T05:21:21;282.00;2278.40
56436;DHT22;42335;44.872;20.658;2024-02-26T05:23:47;282.00;2278.40
56436;DHT22;42335;44.872;20.658;2024-02-26T05:26:22;282.00;2278.40
56436;DHT22;42335;44.872;20.658;2024-02-26T05:28:48;282.00;2278.40
56436;DHT22;42335;44.872;20.658;2024-02-26T05:31:15;282.10;2278.40
56436;DHT22;42335;44.872;20.658;2024-02-26T05:33:41;282.20;2278.40
56436;DHT22;42335;44.872;20.658;2024-02-26T05:36:07;282.20;2278.40
56436;DHT22;42335;44.872;20.658;2024-02-26T05:38:32;282.20;2278.40
56436;DHT22;42335;44.872;20.658;2024-02-26T05:40:59;282.20;2278.40
56436;DHT22;42335;44.872;20.658;2024-02-26T05:43:26;282.20;2278.40
56436;DHT22;42335;44.872;20.658;2024-02-26T05:45:51;282.10;2278.40
56436;DHT22;42335;44.872;20.658;2024-02-26T05:48:17;282.40;2278.40
56436;DHT22;42335;44.872;20.658;2024-02-26T05:50:45;282.40;2278.40
56436;DHT22;42335;44.872;20.658;2024-02-26T05:53:11;282.40;2278.40
56436;DHT22;42335;44.872;20.658;2024-02-26T05:55:37;282.50;2278.40
56436;DHT22;42335;44.872;20.658;2024-02-26T05:58:03;307.20;2304.00
56436;DHT22;42335;44.872;20.658;2024-02-26T06:00:29;307.30;2304.00
56436;DHT22;42335;44.872;20.658;2024-02-26T06:02:55;307.40;2304.00
56436;DHT22;42335;44.872;20.658;2024-02-26T06:05:21;307.50;2304.00
56436;DHT22;42335;44.872;20.658;2024-02-26T06:07:47;307.60;2304.00
56436;DHT22;42335;44.872;20.658;2024-02-26T06:10:13;307.60;2304.00
56436;DHT22;42335;44.872;20.658;2024-02-26T06:12:41;307.70;2304.00
56436;DHT22;42335;44.872;20.658;2024-02-26T06:15:07;307.80;2304.00
56436;DHT22;42335;44.872;20.658;2024-02-26T06:17:33;307.90;2304.00
56436;DHT22;42335;44.872;20.658;2024-02-26T06:19:59;308.00;2304.00
56436;DHT22;42335;44.872;20.658;2024-02-26T06:22:26;308.00;2304.00
56436;DHT22;42335;44.872;20.658;2024-02-26T06:24:51;308.10;2304.00
56436;DHT22;42335;44.872;20.658;2024-02-26T06:27:17;332.80;2329.60
56436;DHT22;42335;44.872;20.658;2024-02-26T06:29:44;332.90;2329.60
56436;DHT22;42335;44.872;20.658;2024-02-26T06:32:09;333.00;2329.60
56436;DHT22;42335;44.872;20.658;2024-02-26T06:34:35;333.10;2329.60
56436;DHT22;42335;44.872;20.658;2024-02-26T06:37:01;333.20;2329.60
56436;DHT22;42335;44.872;20.658;2024-02-26T06:39:29;333.30;2329.60
56436;DHT22;42335;44.872;20.658;2024-02-26T06:41:54;333.40;2329.60
56436;DHT22;42335;44.872;20.658;2024-02-26T06:44:26;333.30;2329.60
56436;DHT22;42335;44.872;20.658;2024-02-26T06:46:52;333.50;2329.60
56436;DHT22;42335;44.872;20.658;2024-02-26T06:49:18;333.40;2329.60
56436;DHT22;42335;44.872;20.658;2024-02-26T06:51:44;333.60;2329.60
56436;DHT22;42335;44.872;20.658;2024-02-26T06:54:10;333.60;2329.60
56436;DHT22;42335;44.872;20.658;2024-02-26T06:56:35;333.70;2329.60
56436;DHT22;42335;44.872;20.658;2024-02-26T06:59:01;358.40;2329.60
56436;DHT22;42335;44.872;20.658;2024-02-26T07:01:27;358.60;2329.60
56436;DHT22;42335;44.872;20.658;2024-02-26T07:03:52;358.70;2329.60
56436;DHT22;42335;44.872;20.658;2024-02-26T07:06:18;358.90;2329.60
56436;DHT22;42335;44.872;20.658;2024-02-26T07:08:44;359.00;2329.60
56436;DHT22;42335;44.872;20.658;2024-02-26T07:11:10;384.10;2329.60
56436;DHT22;42335;44.872;20.658;2024-02-26T07:13:36;384.50;2329.60
56436;DHT22;42335;44.872;20.658;2024-02-26T07:16:03;384.60;2329.60
56436;DHT22;42335;44.872;20.658;2024-02-26T07:18:29;384.70;2329.60
56436;DHT22;42335;44.872;20.658;2024-02-26T07:20:55;384.70;2329.60
56436;DHT22;42335;44.872;20.658;2024-02-26T07:23:21;384.90;2329.60
56436;DHT22;42335;44.872;20.658;2024-02-26T07:25:47;384.90;2329.60
56436;DHT22;42335;44.872;20.658;2024-02-26T07:28:14;384.90;2329.60
56436;DHT22;42335;44.872;20.658;2024-02-26T07:30:40;409.60;2355.20
56436;DHT22;42335;44.872;20.658;2024-02-26T07:33:06;409.90;2355.20
56436;DHT22;42335;44.872;20.658;2024-02-26T07:35:33;410.20;2355.20
56436;DHT22;42335;44.872;20.658;2024-02-26T07:38:02;410.50;2355.20
56436;DHT22;42335;44.872;20.658;2024-02-26T07:40:28;410.30;2355.20
56436;DHT22;42335;44.872;20.658;2024-02-26T07:42:53;435.40;2355.20
56436;DHT22;42335;44.872;20.658;2024-02-26T07:45:19;435.70;2355.20
56436;DHT22;42335;44.872;20.658;2024-02-26T07:47:47;460.80;2380.80
56436;DHT22;42335;44.872;20.658;2024-02-26T07:50:13;486.40;2227.20
56436;DHT22;42335;44.872;20.658;2024-02-26T07:52:39;538.10;1920.00
56436;DHT22;42335;44.872;20.658;2024-02-26T07:55:05;563.40;1792.00
56436;DHT22;42335;44.872;20.658;2024-02-26T08:00:02;640.20;1484.80
56436;DHT22;42335;44.872;20.658;2024-02-26T08:02:28;615.30;1484.80
56436;DHT22;42335;44.872;20.658;2024-02-26T08:04:54;640.00;1433.60
56436;DHT22;42335;44.872;20.658;2024-02-26T08:09:47;717.40;1305.60
56436;DHT22;42335;44.872;20.658;2024-02-26T08:12:13;717.30;1228.80
56436;DHT22;42335;44.872;20.658;2024-02-26T08:14:39;743.10;1152.00
56436;DHT22;42335;44.872;20.658;2024-02-26T08:17:05;717.20;1203.20
56436;DHT22;42335;44.872;20.658;2024-02-26T08:19:31;692.00;1203.20
56436;DHT22;42335;44.872;20.658;2024-02-26T08:21:57;691.20;1280.00
56436;DHT22;42335;44.872;20.658;2024-02-26T08:24:23;665.90;1280.00
56436;DHT22;42335;44.872;20.658;2024-02-26T08:26:49;640.60;1305.60
56436;DHT22;42335;44.872;20.658;2024-02-26T08:29:15;615.20;1356.80
56436;DHT22;42335;44.872;20.658;2024-02-26T08:31:40;614.80;1382.40
56436;DHT22;42335;44.872;20.658;2024-02-26T08:34:12;665.90;1305.60
56436;DHT22;42335;44.872;20.658;2024-02-26T08:36:38;794.30;1049.60
56436;DHT22;42335;44.872;20.658;2024-02-26T08:39:04;896.90;896.00
56436;DHT22;42335;44.872;20.658;2024-02-26T08:41:32;948.10;844.80
56436;DHT22;42335;44.872;20.658;2024-02-26T08:43:58;1024.20;768.00
56436;DHT22;42335;44.872;20.658;2024-02-26T08:46:24;1049.70;742.40
56436;DHT22;42335;44.872;20.658;2024-02-26T08:48:50;1049.90;716.80
56436;DHT22;42335;44.872;20.658;2024-02-26T08:51:15;1075.40;691.20
56436;DHT22;42335;44.872;20.658;2024-02-26T08:53:42;1101.20;640.00
56436;DHT22;42335;44.872;20.658;2024-02-26T08:56:08;1076.10;640.00
56436;DHT22;42335;44.872;20.658;2024-02-26T08:58:33;1075.90;614.40
56436;DHT22;42335;44.872;20.658;2024-02-26T09:00:59;1050.50;665.60
56436;DHT22;42335;44.872;20.658;2024-02-26T09:03:25;1049.90;665.60
56436;DHT22;42335;44.872;20.658;2024-02-26T09:05:51;1024.70;640.00
56436;DHT22;42335;44.872;20.658;2024-02-26T09:08:17;998.90;691.20
56436;DHT22;42335;44.872;20.658;2024-02-26T09:10:43;973.20;716.80
56436;DHT22;42335;44.872;20.658;2024-02-26T09:13:09;922.00;742.40
56436;DHT22;42335;44.872;20.658;2024-02-26T09:15:34;870.80;793.60
56436;DHT22;42335;44.872;20.658;2024-02-26T09:18:00;870.40;844.80
56436;DHT22;42335;44.872;20.658;2024-02-26T09:20:26;820.10;844.80
56436;DHT22;42335;44.872;20.658;2024-02-26T09:22:51;819.90;844.80
56436;DHT22;42335;44.872;20.658;2024-02-26T09:25:17;819.70;844.80
56436;DHT22;42335;44.872;20.658;2024-02-26T09:27:44;794.40;870.40
56436;DHT22;42335;44.872;20.658;2024-02-26T09:30:13;794.20;896.00
56436;DHT22;42335;44.872;20.658;2024-02-26T09:32:39;794.20;896.00
56436;DHT22;42335;44.872;20.658;2024-02-26T09:35:08;768.90;896.00
56436;DHT22;42335;44.872;20.658;2024-02-26T09:37:34;768.90;896.00
56436;DHT22;42335;44.872;20.658;2024-02-26T09:40:03;768.80;896.00
56436;DHT22;42335;44.872;20.658;2024-02-26T09:42:31;768.40;896.00
56436;DHT22;42335;44.872;20.658;2024-02-26T09:45:01;768.60;896.00
56436;DHT22;42335;44.872;20.658;2024-02-26T09:47:31;768.30;921.60
56436;DHT22;42335;44.872;20.658;2024-02-26T09:49:59;768.40;896.00
56436;DHT22;42335;44.872;20.658;2024-02-26T09:52:28;768.30;921.60
56436;DHT22;42335;44.872;20.658;2024-02-26T09:54:56;768.20;921.60
56436;DHT22;42335;44.872;20.658;2024-02-26T09:57:22;768.20;921.60
56436;DHT22;42335;44.872;20.658;2024-02-26T09:59:53;743.30;921.60
56436;DHT22;42335;44.872;20.658;2024-02-26T10:02:20;768.10;921.60
56436;DHT22;42335;44.872;20.658;2024-02-26T10:04:47;768.10;921.60
56436;DHT22;42335;44.872;20.658;2024-02-26T10:07:16;768.60;896.00
56436;DHT22;42335;44.872;20.658;2024-02-26T10:09:42;768.60;896.00
56436;DHT22;42335;44.872;20.658;2024-02-26T10:12:10;794.00;896.00
56436;DHT22;42335;44.872;20.658;2024-02-26T10:14:37;794.00;896.00
56436;DHT22;42335;44.872;20.658;2024-02-26T10:17:03;794.30;870.40
56436;DHT22;42335;44.872;20.658;2024-02-26T10:19:32;794.30;870.40
56436;DHT22;42335;44.872;20.658;2024-02-26T10:21:59;794.40;870.40
56436;DHT22;42335;44.872;20.658;2024-02-26T10:24:26;819.20;870.40
56436;DHT22;42335;44.872;20.658;2024-02-26T10:26:52;819.60;844.80
56436;DHT22;42335;44.872;20.658;2024-02-26T10:29:20;819.80;844.80
56436;DHT22;42335;44.872;20.658;2024-02-26T10:31:46;820.00;844.80
56436;DHT22;42335;44.872;20.658;2024-02-26T10:34:12;820.00;844.80
56436;DHT22;42335;44.872;20.658;2024-02-26T10:36:38;845.40;844.80
56436;DHT22;42335;44.872;20.658;2024-02-26T10:39:07;844.90;844.80
56436;DHT22;42335;44.872;20.658;2024-02-26T10:41:33;870.40;819.20
56436;DHT22;42335;44.872;20.658;2024-02-26T10:44:00;845.50;819.20
56436;DHT22;42335;44.872;20.658;2024-02-26T10:46:26;845.70;819.20
56436;DHT22;42335;44.872;20.658;2024-02-26T10:48:53;870.50;793.60
56436;DHT22;42335;44.872;20.658;2024-02-26T10:51:26;845.70;793.60
56436;DHT22;42335;44.872;20.658;2024-02-26T10:53:56;845.50;819.20
56436;DHT22;42335;44.872;20.658;2024-02-26T10:56:27;845.40;819.20
56436;DHT22;42335;44.872;20.658;2024-02-26T10:58:54;845.70;793.60
56436;DHT22;42335;44.872;20.658;2024-02-26T11:01:21;845.60;793.60
56436;DHT22;42335;44.872;20.658;2024-02-26T11:03:51;845.20;819.20
56436;DHT22;42335;44.872;20.658;2024-02-26T11:06:19;870.40;793.60
56436;DHT22;42335;44.872;20.658;2024-02-26T11:08:53;870.60;793.60
56436;DHT22;42335;44.872;20.658;2024-02-26T11:11:20;871.00;768.00
56436;DHT22;42335;44.872;20.658;2024-02-26T11:13:47;896.00;742.40
56436;DHT22;42335;44.872;20.658;2024-02-26T11:16:21;871.30;742.40
56436;DHT22;42335;44.872;20.658;2024-02-26T11:18:48;871.30;742.40
56436;DHT22;42335;44.872;20.658;2024-02-26T11:21:17;871.30;742.40
56436;DHT22;42335;44.872;20.658;2024-02-26T11:23:56;870.90;768.00
56436;DHT22;42335;44.872;20.658;2024-02-26T11:26:23;871.20;768.00
56436;DHT22;42335;44.872;20.658;2024-02-26T11:28:50;871.30;742.40
56436;DHT22;42335;44.872;20.658;2024-02-26T11:31:17;871.10;742.40
56436;DHT22;42335;44.872;20.658;2024-02-26T11:33:46;870.70;768.00
56436;DHT22;42335;44.872;20.658;2024-02-26T11:36:12;845.70;768.00
56436;DHT22;42335;44.872;20.658;2024-02-26T11:38:39;870.50;768.00
56436;DHT22;42335;44.872;20.658;2024-02-26T11:41:06;870.50;768.00
56436;DHT22;42335;44.872;20.658;2024-02-26T11:44:05;870.90;742.40
56436;DHT22;42335;44.872;20.658;2024-02-26T11:46:33;845.40;768.00
56436;DHT22;42335;44.872;20.658;2024-02-26T11:49:00;845.70;768.00
56436;DHT22;42335;44.872;20.658;2024-02-26T11:51:28;845.50;768.00
56436;DHT22;42335;44.872;20.658;2024-02-26T11:53:57;845.20;793.60
56436;DHT22;42335;44.872;20.658;2024-02-26T11:56:24;845.40;768.00
56436;DHT22;42335;44.872;20.658;2024-02-26T11:59:10;845.30;793.60
56436;DHT22;42335;44.872;20.658;2024-02-26T12:04:11;998.70;640.00
56436;DHT22;42335;44.872;20.658;2024-02-26T12:06:55;1152.10;512.00
56436;DHT22;42335;44.872;20.658;2024-02-26T12:09:38;1229.30;460.80
56436;DHT22;42335;44.872;20.658;2024-02-26T12:12:06;1280.70;486.40
56436;DHT22;42335;44.872;20.658;2024-02-26T12:14:51;1178.10;486.40
56436;DHT22;42335;44.872;20.658;2024-02-26T12:17:21;1075.70;563.20
56436;DHT22;42335;44.872;20.658;2024-02-26T12:19:47;998.80;614.40
56436;DHT22;42335;44.872;20.658;2024-02-26T12:22:14;947.30;640.00
56436;DHT22;42335;44.872;20.658;2024-02-26T12:24:41;896.10;691.20
56436;DHT22;42335;44.872;20.658;2024-02-26T12:27:07;845.60;742.40
56436;DHT22;42335;44.872;20.658;2024-02-26T12:29:32;845.10;768.00
56436;DHT22;42335;44.872;20.658;2024-02-26T12:31:58;820.00;768.00
56436;DHT22;42335;44.872;20.658;2024-02-26T12:34:25;819.60;793.60
56436;DHT22;42335;44.872;20.658;2024-02-26T12:36:52;819.20;793.60
56436;DHT22;42335;44.872;20.658;2024-02-26T12:39:19;794.00;819.20
56436;DHT22;42335;44.872;20.658;2024-02-26T12:41:46;793.70;844.80
56436;DHT22;42335;44.872;20.658;2024-02-26T12:44:18;768.90;819.20
56436;DHT22;42335;44.872;20.658;2024-02-26T12:46:49;768.40;819.20
56436;DHT22;42335;44.872;20.658;2024-02-26T12:49:16;743.20;844.80
56436;DHT22;42335;44.872;20.658;2024-02-26T12:51:45;742.90;844.80
56436;DHT22;42335;44.872;20.658;2024-02-26T12:54:11;742.80;870.40
56436;DHT22;42335;44.872;20.658;2024-02-26T12:56:38;742.60;870.40
56436;DHT22;42335;44.872;20.658;2024-02-26T12:59:04;742.50;870.40
56436;DHT22;42335;44.872;20.658;2024-02-26T13:01:30;742.60;870.40
56436;DHT22;42335;44.872;20.658;2024-02-26T13:03:56;742.50;870.40
56436;DHT22;42335;44.872;20.658;2024-02-26T13:06:22;717.60;870.40
56436;DHT22;42335;44.872;20.658;2024-02-26T13:08:49;717.50;870.40
56436;DHT22;42335;44.872;20.658;2024-02-26T13:11:15;717.10;896.00
56436;DHT22;42335;44.872;20.658;2024-02-26T13:13:41;717.00;896.00
56436;DHT22;42335;44.872;20.658;2024-02-26T13:16:10;717.20;896.00
56436;DHT22;42335;44.872;20.658;2024-02-26T13:18:36;717.10;896.00
56436;DHT22;42335;44.872;20.658;2024-02-26T13:21:12;716.90;896.00
56436;DHT22;42335;44.872;20.658;2024-02-26T13:23:39;716.90;896.00
56436;DHT22;42335;44.872;20.658;2024-02-26T13:26:05;692.10;870.40
56436;DHT22;42335;44.872;20.658;2024-02-26T13:28:31;692.10;870.40
56436;DHT22;42335;44.872;20.658;2024-02-26T13:30:58;692.10;870.40
56436;DHT22;42335;44.872;20.658;2024-02-26T13:33:27;691.90;896.00
56436;DHT22;42335;44.872;20.658;2024-02-26T13:35:56;691.80;870.40
56436;DHT22;42335;44.872;20.658;2024-02-26T13:38:23;691.70;896.00
56436;DHT22;42335;44.872;20.658;2024-02-26T13:40:50;691.70;896.00
56436;DHT22;42335;44.872;20.658;2024-02-26T13:43:16;691.50;896.00
56436;DHT22;42335;44.872;20.658;2024-02-26T13:45:42;691.20;921.60
56436;DHT22;42335;44.872;20.658;2024-02-26T13:48:10;666.50;947.20
56436;DHT22;42335;44.872;20.658;2024-02-26T13:50:37;691.20;921.60
56436;DHT22;42335;44.872;20.658;2024-02-26T13:53:03;666.50;921.60
56436;DHT22;42335;44.872;20.658;2024-02-26T13:55:30;666.50;921.60
56436;DHT22;42335;44.872;20.658;2024-02-26T13:57:58;666.50;921.60
56436;DHT22;42335;44.872;20.658;2024-02-26T14:00:27;666.30;947.20
56436;DHT22;42335;44.872;20.658;2024-02-26T14:02:53;666.00;998.40
56436;DHT22;42335;44.872;20.658;2024-02-26T14:05:19;640.90;1024.00
56436;DHT22;42335;44.872;20.658;2024-02-26T14:07:45;640.70;1024.00
56436;DHT22;42335;44.872;20.658;2024-02-26T14:10:12;640.60;1049.60
56436;DHT22;42335;44.872;20.658;2024-02-26T14:12:38;640.40;1075.20
56436;DHT22;42335;44.872;20.658;2024-02-26T14:15:06;640.00;1075.20
56436;DHT22;42335;44.872;20.658;2024-02-26T14:17:32;615.20;1100.80
56436;DHT22;42335;44.872;20.658;2024-02-26T14:19:58;615.00;1126.40
56436;DHT22;42335;44.872;20.658;2024-02-26T14:22:25;614.80;1100.80
56436;DHT22;42335;44.872;20.658;2024-02-26T14:24:52;614.70;1126.40
56436;DHT22;42335;44.872;20.658;2024-02-26T14:27:18;614.60;1152.00
56436;DHT22;42335;44.872;20.658;2024-02-26T14:29:46;614.40;1152.00
56436;DHT22;42335;44.872;20.658;2024-02-26T14:32:12;589.60;1177.60
56436;DHT22;42335;44.872;20.658;2024-02-26T14:34:38;589.50;1177.60
56436;DHT22;42335;44.872;20.658;2024-02-26T14:37:04;589.40;1203.20
56436;DHT22;42335;44.872;20.658;2024-02-26T14:39:34;589.30;1203.20
56436;DHT22;42335;44.872;20.658;2024-02-26T14:44:26;589.00;1228.80
56436;DHT22;42335;44.872;20.658;2024-02-26T14:46:52;588.90;1228.80